createdAt,value
2018-04-28T00:01:01.413Z,13.48
2018-04-28T00:03:30.548Z,13.40
2018-04-28T00:06:00.367Z,13.32
2018-04-28T00:08:36.068Z,13.22
2018-04-28T00:11:04.837Z,13.24
2018-04-28T00:13:33.746Z,13.18
2018-04-28T00:16:15.913Z,13.23
2018-04-28T00:19:17.343Z,13.26
2018-04-28T00:21:51.354Z,13.26
2018-04-28T00:24:22.798Z,13.27
2018-04-28T00:27:22.659Z,13.29
2018-04-28T00:30:09.045Z,13.35
2018-04-28T00:32:39.914Z,13.38
2018-04-28T00:35:10.432Z,13.34
2018-04-28T00:37:56.266Z,13.33
2018-04-28T00:43:30.926Z,13.48
2018-04-28T00:46:23.250Z,13.43
2018-04-28T00:51:53.375Z,13.23
2018-04-28T00:57:59.552Z,12.99
2018-04-28T01:04:09.676Z,12.64
2018-04-28T01:06:38.579Z,12.58
2018-04-28T01:09:07.297Z,12.52
2018-04-28T01:11:36.208Z,12.47
2018-04-28T01:14:13.496Z,12.45
2018-04-28T01:16:46.817Z,12.42
2018-04-28T01:19:28.415Z,12.40
2018-04-28T01:22:01.543Z,12.37
2018-04-28T01:24:45.676Z,12.30
2018-04-28T01:27:21.941Z,12.23
2018-04-28T01:30:04.231Z,12.26
2018-04-28T01:32:51.598Z,12.28
2018-04-28T01:35:20.371Z,12.22
2018-04-28T01:37:50.759Z,12.15
2018-04-28T01:40:24.448Z,12.07
2018-04-28T01:46:08.654Z,12.08
2018-04-28T01:48:40.927Z,12.09
2018-04-28T01:54:33.546Z,12.01
2018-04-28T01:57:13.795Z,11.96
2018-04-28T01:59:50.439Z,11.96
2018-04-28T02:02:29.213Z,11.93
2018-04-28T02:05:04.762Z,11.99
2018-04-28T02:07:36.511Z,12.02
2018-04-28T02:10:06.013Z,12.04
2018-04-28T02:12:49.413Z,12.02
2018-04-28T02:15:31.624Z,11.99
2018-04-28T02:18:12.250Z,11.95
2018-04-28T02:21:12.509Z,11.89
2018-04-28T02:23:49.566Z,11.86
2018-04-28T02:29:29.288Z,11.76
2018-04-28T02:35:17.708Z,11.44
2018-04-28T02:38:04.081Z,11.37
2018-04-28T02:40:37.128Z,11.28
2018-04-28T02:43:21.366Z,11.23
2018-04-28T02:46:00.586Z,11.26
2018-04-28T02:51:50.654Z,11.22
2018-04-28T02:54:27.781Z,11.22
2018-04-28T02:57:00.294Z,11.11
2018-04-28T02:59:42.093Z,11.01
2018-04-28T03:02:28.544Z,10.95
2018-04-28T03:05:04.957Z,10.90
2018-04-28T03:07:46.455Z,10.90
2018-04-28T03:10:19.275Z,10.93
2018-04-28T03:12:49.090Z,10.87
2018-04-28T03:15:17.817Z,10.82
2018-04-28T03:18:05.741Z,10.82
2018-04-28T03:20:37.952Z,10.83
2018-04-28T03:23:08.352Z,10.87
2018-04-28T03:25:38.333Z,10.92
2018-04-28T03:28:20.992Z,10.95
2018-04-28T03:31:22.335Z,10.97
2018-04-28T03:33:59.966Z,10.93
2018-04-28T03:39:51.925Z,10.89
2018-04-28T03:42:28.248Z,10.89
2018-04-28T03:45:00.209Z,10.90
2018-04-28T03:47:46.399Z,10.95
2018-04-28T03:50:27.832Z,10.99
2018-04-28T03:53:06.629Z,10.98
2018-04-28T03:55:37.292Z,10.86
2018-04-28T03:58:25.101Z,10.79
2018-04-28T04:01:12.024Z,10.74
2018-04-28T04:03:59.018Z,10.71
2018-04-28T04:06:31.200Z,10.69
2018-04-28T04:12:24.648Z,10.76
2018-04-28T04:18:21.672Z,10.86
2018-04-28T04:24:16.006Z,10.99
2018-04-28T04:27:34.051Z,11.02
2018-04-28T04:33:14.543Z,11.14
2018-04-28T04:35:54.039Z,11.19
2018-04-28T04:38:32.358Z,11.30
2018-04-28T04:41:24.466Z,11.37
2018-04-28T04:47:28.016Z,11.72
2018-04-28T04:50:12.710Z,11.87
2018-04-28T04:55:43.345Z,11.84
2018-04-28T04:58:23.829Z,11.79
2018-04-28T05:04:52.854Z,11.99
2018-04-28T05:14:08.088Z,12.52
2018-04-28T05:20:00.869Z,12.76
2018-04-28T05:25:41.401Z,12.91
2018-04-28T05:31:55.757Z,13.55
2018-04-28T05:38:00.789Z,14.21
2018-04-28T05:40:39.558Z,14.79
2018-04-28T05:46:43.343Z,16.07
2018-04-28T05:52:33.344Z,16.98
2018-04-28T05:55:22.457Z,17.31
2018-04-28T06:01:25.820Z,17.46
2018-04-28T06:04:22.376Z,17.85
2018-04-28T06:07:17.660Z,17.98
2018-04-28T06:13:13.056Z,18.84
2018-04-28T06:15:51.315Z,19.27
2018-04-28T06:21:50.495Z,20.02
2018-04-28T06:24:19.237Z,20.52
2018-04-28T06:26:47.992Z,20.71
2018-04-28T06:29:16.917Z,20.85
2018-04-28T06:31:46.485Z,21.10
2018-04-28T06:34:15.299Z,21.43
2018-04-28T06:36:44.351Z,21.50
2018-04-28T06:39:13.391Z,21.38
2018-04-28T06:41:42.618Z,21.82
2018-04-28T06:44:12.234Z,22.45
2018-04-28T06:46:41.460Z,22.83
2018-04-28T06:49:10.982Z,23.34
2018-04-28T06:51:40.944Z,23.35
2018-04-28T06:54:09.968Z,23.12
2018-04-28T06:56:38.941Z,23.38
2018-04-28T06:59:07.759Z,23.91
2018-04-28T07:01:36.698Z,24.44
2018-04-28T07:04:05.504Z,24.67
2018-04-28T07:06:34.443Z,24.81
2018-04-28T07:09:07.361Z,25.43
2018-04-28T07:11:37.610Z,25.95
2018-04-28T07:14:06.414Z,25.95
2018-04-28T07:16:35.302Z,26.00
2018-04-28T07:19:04.887Z,25.96
2018-04-28T07:21:33.895Z,26.53
2018-04-28T07:24:02.680Z,26.62
2018-04-28T07:26:31.519Z,26.82
2018-04-28T07:29:01.419Z,26.79
2018-04-28T07:31:30.867Z,27.16
2018-04-28T07:33:59.826Z,28.04
2018-04-28T07:36:29.333Z,28.21
2018-04-28T07:38:59.700Z,28.85
2018-04-28T07:41:28.703Z,29.26
2018-04-28T07:44:00.084Z,29.01
2018-04-28T07:46:29.784Z,29.26
2018-04-28T07:48:59.505Z,29.20
2018-04-28T07:51:28.426Z,29.80
2018-04-28T07:53:57.366Z,29.65
2018-04-28T07:56:26.194Z,29.99
2018-04-28T07:58:55.876Z,30.45
2018-04-28T08:01:25.611Z,30.58
2018-04-28T08:03:55.785Z,31.21
2018-04-28T08:06:26.920Z,31.03
2018-04-28T08:08:59.094Z,30.98
2018-04-28T08:11:27.899Z,31.19
2018-04-28T08:13:56.810Z,31.82
2018-04-28T08:16:26.138Z,31.73
2018-04-28T08:18:55.147Z,31.88
2018-04-28T08:21:24.164Z,31.67
2018-04-28T08:23:52.980Z,31.88
2018-04-28T08:26:21.863Z,32.10
2018-04-28T08:28:51.527Z,32.26
2018-04-28T08:31:21.299Z,31.96
2018-04-28T08:33:50.688Z,32.51
2018-04-28T08:36:20.241Z,32.89
2018-04-28T08:38:49.750Z,33.22
2018-04-28T08:41:20.142Z,33.31
2018-04-28T08:43:50.543Z,32.98
2018-04-28T08:46:21.294Z,32.29
2018-04-28T08:48:50.675Z,31.35
2018-04-28T08:51:21.152Z,32.98
2018-04-28T08:53:51.256Z,33.12
2018-04-28T08:56:22.187Z,33.48
2018-04-28T08:58:52.207Z,32.14
2018-04-28T09:01:22.223Z,30.68
2018-04-28T09:03:51.345Z,30.46
2018-04-28T09:06:21.024Z,30.99
2018-04-28T09:08:50.191Z,31.93
2018-04-28T09:11:20.828Z,32.33
2018-04-28T09:13:49.960Z,32.28
2018-04-28T09:16:20.319Z,32.51
2018-04-28T09:18:50.055Z,30.67
2018-04-28T09:21:20.103Z,29.54
2018-04-28T09:23:49.361Z,29.55
2018-04-28T09:26:18.330Z,28.91
2018-04-28T09:28:47.541Z,28.33
2018-04-28T09:31:16.212Z,28.34
2018-04-28T09:33:46.059Z,29.57
2018-04-28T09:36:15.634Z,30.83
2018-04-28T09:38:45.321Z,28.83
2018-04-28T09:41:15.839Z,29.70
2018-04-28T09:43:46.238Z,30.69
2018-04-28T09:46:16.044Z,31.93
2018-04-28T09:48:45.489Z,31.10
2018-04-28T09:51:14.384Z,30.78
2018-04-28T09:53:43.743Z,30.16
2018-04-28T09:56:14.549Z,30.13
2018-04-28T09:58:43.762Z,30.25
2018-04-28T10:01:19.085Z,31.13
2018-04-28T10:03:55.347Z,31.85
2018-04-28T10:06:25.615Z,32.43
2018-04-28T10:08:54.653Z,31.85
2018-04-28T10:11:24.621Z,32.01
2018-04-28T10:13:56.698Z,29.91
2018-04-28T10:16:26.941Z,31.30
2018-04-28T10:18:57.945Z,30.14
2018-04-28T10:21:28.194Z,29.46
2018-04-28T10:23:57.742Z,28.11
2018-04-28T10:26:27.584Z,29.57
2018-04-28T10:28:58.296Z,30.74
2018-04-28T10:31:28.269Z,31.40
2018-04-28T10:33:57.902Z,31.71
2018-04-28T10:36:27.531Z,31.84
2018-04-28T10:38:56.720Z,31.58
2018-04-28T10:41:27.637Z,32.42
2018-04-28T10:43:58.686Z,32.82
2018-04-28T10:46:28.132Z,33.06
2018-04-28T10:48:58.518Z,32.06
2018-04-28T10:51:28.825Z,30.69
2018-04-28T10:53:57.847Z,32.26
2018-04-28T10:56:27.099Z,29.78
2018-04-28T10:58:56.506Z,28.45
2018-04-28T11:01:25.705Z,28.24
2018-04-28T11:03:55.798Z,28.77
2018-04-28T11:06:26.265Z,28.70
2018-04-28T11:08:56.833Z,28.75
2018-04-28T11:11:27.997Z,28.96
2018-04-28T11:13:57.779Z,29.25
2018-04-28T11:16:27.354Z,28.81
2018-04-28T11:18:58.896Z,29.59
2018-04-28T11:21:28.058Z,28.58
2018-04-28T11:23:58.198Z,29.35
2018-04-28T11:26:27.975Z,28.94
2018-04-28T11:28:57.139Z,29.39
2018-04-28T11:31:26.727Z,28.91
2018-04-28T11:33:57.476Z,28.63
2018-04-28T11:36:28.043Z,29.95
2018-04-28T11:38:58.144Z,30.16
2018-04-28T11:41:28.398Z,31.58
2018-04-28T11:43:57.099Z,31.93
2018-04-28T11:46:26.135Z,32.21
2018-04-28T11:48:55.676Z,32.32
2018-04-28T11:51:24.841Z,32.49
2018-04-28T11:53:54.297Z,32.93
2018-04-28T11:56:23.397Z,31.12
2018-04-28T11:58:52.727Z,32.30
2018-04-28T12:01:22.459Z,30.77
2018-04-28T12:03:53.475Z,31.08
2018-04-28T12:06:23.263Z,31.08
2018-04-28T12:08:52.962Z,31.29
2018-04-28T12:11:22.685Z,30.05
2018-04-28T12:13:52.668Z,31.91
2018-04-28T12:16:21.938Z,33.11
2018-04-28T12:18:52.200Z,33.33
2018-04-28T12:21:21.728Z,32.39
2018-04-28T12:23:50.581Z,32.59
2018-04-28T12:26:20.803Z,32.37
2018-04-28T12:28:51.966Z,32.36
2018-04-28T12:31:21.288Z,31.59
2018-04-28T12:33:51.366Z,32.02
2018-04-28T12:36:21.840Z,32.14
2018-04-28T12:38:51.727Z,30.74
2018-04-28T12:41:22.348Z,29.83
2018-04-28T12:43:53.157Z,30.98
2018-04-28T12:46:23.825Z,31.73
2018-04-28T12:48:57.854Z,31.52
2018-04-28T12:51:28.268Z,30.46
2018-04-28T12:53:57.930Z,31.94
2018-04-28T12:56:28.216Z,32.08
2018-04-28T12:58:58.220Z,32.50
2018-04-28T13:01:29.172Z,31.52
2018-04-28T13:03:58.419Z,31.18
2018-04-28T13:06:27.356Z,32.47
2018-04-28T13:08:57.009Z,32.45
2018-04-28T13:11:27.456Z,32.84
2018-04-28T13:13:57.999Z,32.88
2018-04-28T13:16:27.304Z,31.53
2018-04-28T13:18:57.811Z,32.82
2018-04-28T13:21:28.219Z,32.49
2018-04-28T13:24:00.932Z,32.54
2018-04-28T13:26:32.832Z,32.58
2018-04-28T13:29:03.396Z,32.97
2018-04-28T13:31:33.827Z,33.17
2018-04-28T13:34:04.393Z,33.30
2018-04-28T13:36:34.623Z,33.40
2018-04-28T13:39:05.468Z,32.40
2018-04-28T13:41:36.069Z,32.89
2018-04-28T13:44:06.208Z,33.29
2018-04-28T13:46:35.610Z,32.08
2018-04-28T13:49:04.212Z,32.98
2018-04-28T13:51:34.688Z,33.27
2018-04-28T13:54:03.778Z,32.50
2018-04-28T13:56:33.471Z,32.37
2018-04-28T13:59:03.851Z,32.36
2018-04-28T14:01:32.876Z,32.19
2018-04-28T14:04:01.626Z,32.77
2018-04-28T14:06:30.678Z,32.44
2018-04-28T14:09:00.643Z,32.80
2018-04-28T14:11:29.747Z,32.23
2018-04-28T14:13:58.957Z,31.30
2018-04-28T14:16:28.225Z,31.63
2018-04-28T14:18:57.688Z,32.42
2018-04-28T14:21:26.836Z,31.24
2018-04-28T14:23:57.071Z,31.01
2018-04-28T14:26:26.562Z,32.09
2018-04-28T14:28:56.161Z,32.73
2018-04-28T14:31:25.526Z,33.14
2018-04-28T14:33:54.532Z,31.43
2018-04-28T14:36:23.777Z,30.80
2018-04-28T14:38:52.723Z,31.25
2018-04-28T14:41:22.462Z,31.09
2018-04-28T14:43:52.103Z,30.55
2018-04-28T14:46:23.212Z,29.63
2018-04-28T14:48:53.931Z,29.02
2018-04-28T14:51:25.721Z,29.21
2018-04-28T14:53:55.277Z,29.94
2018-04-28T14:56:24.449Z,30.42
2018-04-28T14:58:54.057Z,30.01
2018-04-28T15:01:23.742Z,29.84
2018-04-28T15:03:52.531Z,29.91
2018-04-28T15:06:21.818Z,30.36
2018-04-28T15:08:52.169Z,30.71
2018-04-28T15:11:22.137Z,30.23
2018-04-28T15:13:52.139Z,29.96
2018-04-28T15:16:23.156Z,30.44
2018-04-28T15:18:52.470Z,30.25
2018-04-28T15:21:22.191Z,30.07
2018-04-28T15:23:51.320Z,29.53
2018-04-28T15:26:20.327Z,29.96
2018-04-28T15:28:51.392Z,29.89
2018-04-28T15:31:20.769Z,29.84
2018-04-28T15:33:51.019Z,29.77
2018-04-28T15:36:21.760Z,29.88
2018-04-28T15:38:53.259Z,29.59
2018-04-28T15:41:22.542Z,29.49
2018-04-28T15:43:52.327Z,29.27
2018-04-28T15:46:21.164Z,29.26
2018-04-28T15:48:50.626Z,29.70
2018-04-28T15:51:20.204Z,29.46
2018-04-28T15:53:50.550Z,29.83
2018-04-28T15:56:19.532Z,29.70
2018-04-28T15:58:48.350Z,29.82
2018-04-28T16:01:17.328Z,29.27
2018-04-28T16:03:47.954Z,29.65
2018-04-28T16:06:17.568Z,29.76
2018-04-28T16:08:47.495Z,29.08
2018-04-28T16:11:17.532Z,28.97
2018-04-28T16:13:47.363Z,28.53
2018-04-28T16:16:16.697Z,28.50
2018-04-28T16:18:46.473Z,28.67
2018-04-28T16:21:17.481Z,28.28
2018-04-28T16:23:46.294Z,28.05
2018-04-28T16:26:16.417Z,27.96
2018-04-28T16:28:46.719Z,28.03
2018-04-28T16:31:16.008Z,28.19
2018-04-28T16:33:45.085Z,28.17
2018-04-28T16:36:14.600Z,28.02
2018-04-28T16:38:45.624Z,28.00
2018-04-28T16:41:18.102Z,28.01
2018-04-28T16:43:48.846Z,27.84
2018-04-28T16:46:17.842Z,27.75
2018-04-28T16:48:47.024Z,27.74
2018-04-28T16:51:18.529Z,27.70
2018-04-28T16:53:48.277Z,27.66
2018-04-28T16:56:17.807Z,27.56
2018-04-28T16:58:47.428Z,27.48
2018-04-28T17:01:16.552Z,27.36
2018-04-28T17:03:47.598Z,27.24
2018-04-28T17:06:17.870Z,27.00
2018-04-28T17:08:47.695Z,26.76
2018-04-28T17:11:16.686Z,26.54
2018-04-28T17:13:48.228Z,26.39
2018-04-28T17:16:19.757Z,26.24
2018-04-28T17:18:50.031Z,26.15
2018-04-28T17:21:19.948Z,26.01
2018-04-28T17:23:49.027Z,25.75
2018-04-28T17:26:18.107Z,25.51
2018-04-28T17:28:47.957Z,25.21
2018-04-28T17:31:16.884Z,24.99
2018-04-28T17:33:46.781Z,24.81
2018-04-28T17:36:17.298Z,24.69
2018-04-28T17:38:47.111Z,24.55
2018-04-28T17:41:17.100Z,24.39
2018-04-28T17:43:46.036Z,24.22
2018-04-28T17:46:14.874Z,24.01
2018-04-28T17:48:43.981Z,23.86
2018-04-28T17:51:13.723Z,23.72
2018-04-28T17:53:42.530Z,23.56
2018-04-28T17:56:12.319Z,23.32
2018-04-28T17:58:41.761Z,23.12
2018-04-28T18:01:11.292Z,22.96
2018-04-28T18:03:40.560Z,22.79
2018-04-28T18:06:11.048Z,22.66
2018-04-28T18:08:41.916Z,22.56
2018-04-28T18:11:11.918Z,22.48
2018-04-28T18:13:42.639Z,22.39
2018-04-28T18:16:12.329Z,22.29
2018-04-28T18:18:41.827Z,22.14
2018-04-28T18:21:12.949Z,22.04
2018-04-28T18:23:42.908Z,21.88
2018-04-28T18:26:12.766Z,21.78
2018-04-28T18:28:43.067Z,21.75
2018-04-28T18:31:14.372Z,21.68
2018-04-28T18:33:44.479Z,21.55
2018-04-28T18:36:13.490Z,21.45
2018-04-28T18:38:42.726Z,21.44
2018-04-28T18:41:11.637Z,21.45
2018-04-28T18:43:40.964Z,21.48
2018-04-28T18:46:10.294Z,21.35
2018-04-28T18:48:41.837Z,21.12
2018-04-28T18:51:11.103Z,20.99
2018-04-28T18:53:42.999Z,20.88
2018-04-28T18:56:13.740Z,20.99
2018-04-28T18:58:43.731Z,21.07
2018-04-28T19:01:13.445Z,21.00
2018-04-28T19:03:44.119Z,21.03
2018-04-28T19:06:14.110Z,20.90
2018-04-28T19:08:43.945Z,20.95
2018-04-28T19:11:15.193Z,20.98
2018-04-28T19:13:45.763Z,21.06
2018-04-28T19:16:17.620Z,21.12
2018-04-28T19:18:48.040Z,21.10
2018-04-28T19:21:17.641Z,21.14
2018-04-28T19:23:47.113Z,21.07
2018-04-28T19:26:16.421Z,21.03
2018-04-28T19:28:45.640Z,21.08
2018-04-28T19:31:15.020Z,21.18
2018-04-28T19:33:44.274Z,21.19
2018-04-28T19:36:14.399Z,21.12
2018-04-28T19:38:44.604Z,21.05
2018-04-28T19:41:14.430Z,20.99
2018-04-28T19:43:45.220Z,20.81
2018-04-28T19:46:15.396Z,20.89
2018-04-28T19:48:45.758Z,20.86
2018-04-28T19:51:15.975Z,20.88
2018-04-28T19:53:45.068Z,20.86
2018-04-28T19:56:16.413Z,20.81
2018-04-28T19:58:46.460Z,20.81
2018-04-28T20:01:16.952Z,20.76
2018-04-28T20:03:48.370Z,20.85
2018-04-28T20:06:17.763Z,20.88
2018-04-28T20:08:47.618Z,20.77
2018-04-28T20:11:16.948Z,20.67
2018-04-28T20:13:48.028Z,20.49
2018-04-28T20:16:17.189Z,20.41
2018-04-28T20:18:47.217Z,20.38
2018-04-28T20:21:17.230Z,20.37
2018-04-28T20:26:58.296Z,20.36
2018-04-28T20:29:27.920Z,20.25
2018-04-28T20:31:57.152Z,20.22
2018-04-28T20:34:26.665Z,20.33
2018-04-28T20:36:55.771Z,20.28
2018-04-28T20:39:25.122Z,20.21
2018-04-28T20:41:54.736Z,20.06
2018-04-28T20:44:23.539Z,19.98
2018-04-28T20:46:53.485Z,19.87
2018-04-28T20:49:24.456Z,19.74
2018-04-28T20:51:54.662Z,19.66
2018-04-28T20:54:24.125Z,19.57
2018-04-28T20:56:53.700Z,19.45
2018-04-28T20:59:23.461Z,19.41
2018-04-28T21:01:52.473Z,19.25
2018-04-28T21:04:22.505Z,19.21
2018-04-28T21:06:52.076Z,19.12
2018-04-28T21:09:21.500Z,19.13
2018-04-28T21:11:50.863Z,19.12
2018-04-28T21:14:20.038Z,19.11
2018-04-28T21:16:50.144Z,19.08
2018-04-28T21:19:19.832Z,18.94
2018-04-28T21:21:50.670Z,18.86
2018-04-28T21:24:20.143Z,18.77
2018-04-28T21:26:49.018Z,18.72
2018-04-28T21:29:18.796Z,18.65
2018-04-28T21:31:48.627Z,18.59
2018-04-28T21:34:17.338Z,18.47
2018-04-28T21:36:46.088Z,18.35
2018-04-28T21:39:14.982Z,18.27
2018-04-28T21:41:43.927Z,18.16
2018-04-28T21:44:15.593Z,18.11
2018-04-28T21:46:45.553Z,18.06
2018-04-28T21:49:15.281Z,18.05
2018-04-28T21:51:45.343Z,18.02
2018-04-28T21:54:14.039Z,17.99
2018-04-28T21:56:42.961Z,17.94
2018-04-28T21:59:12.438Z,17.91
2018-04-28T22:01:44.084Z,17.91
2018-04-28T22:04:12.862Z,17.96
2018-04-28T22:06:41.793Z,18.01
2018-04-28T22:09:12.161Z,18.08
2018-04-28T22:11:41.831Z,18.17
2018-04-28T22:14:12.424Z,18.15
2018-04-28T22:16:41.348Z,18.12
2018-04-28T22:19:10.217Z,18.10
2018-04-28T22:21:40.016Z,18.12
2018-04-28T22:24:09.704Z,17.54
2018-04-28T22:26:38.476Z,17.47
2018-04-28T22:29:08.067Z,17.41
2018-04-28T22:31:37.495Z,17.39
2018-04-28T22:34:06.191Z,17.41
2018-04-28T22:36:35.879Z,17.46
2018-04-28T22:39:06.087Z,17.44
2018-04-28T22:41:35.395Z,16.88
2018-04-28T22:44:04.001Z,16.78
2018-04-28T22:46:32.772Z,16.81
2018-04-28T22:49:01.780Z,16.83
2018-04-28T22:51:30.837Z,16.89
2018-04-28T22:54:01.039Z,17.01
2018-04-28T22:56:30.465Z,17.11
2018-04-28T22:58:59.438Z,17.18
2018-04-28T23:01:29.224Z,17.21
2018-04-28T23:03:59.727Z,17.23
2018-04-28T23:06:29.906Z,17.29
2018-04-28T23:08:59.122Z,17.34
2018-04-28T23:11:28.433Z,17.36
2018-04-28T23:13:57.437Z,17.29
2018-04-28T23:16:26.253Z,17.20
2018-04-28T23:18:55.197Z,17.10
2018-04-28T23:21:23.883Z,17.00
2018-04-28T23:23:52.847Z,16.96
2018-04-28T23:26:21.548Z,16.95
2018-04-28T23:28:50.545Z,16.95
2018-04-28T23:31:19.531Z,16.92
2018-04-28T23:33:48.823Z,16.89
2018-04-28T23:36:19.162Z,16.90
2018-04-28T23:38:47.965Z,16.92
2018-04-28T23:41:16.941Z,16.93
2018-04-28T23:43:45.607Z,16.94
2018-04-28T23:46:15.383Z,16.98
2018-04-28T23:48:44.196Z,16.99
2018-04-28T23:51:12.985Z,16.97
2018-04-28T23:53:41.759Z,16.92
2018-04-28T23:56:11.325Z,16.81
2018-04-28T23:58:39.921Z,16.77
